Time,TemperatureF,DewpointF,PressureIn,WindDirection,WindDirectionDegrees,WindSpeedMPH,WindSpeedGustMPH,Humidity,HourlyPrecipIn,Conditions,Clouds,dailyrainin,SoftwareType,DateUTC
2013-01-09 00:00:00,30.6,25.8,30.20,WNW,289,0.0,0.0,82,0.00,,---,0.00,VWS V14.01,2013-01-09 06:00:00,
2013-01-09 00:01:00,30.9,26.4,30.20,WNW,289,0.0,0.0,83,0.00,,---,0.00,VWS V14.01,2013-01-09 06:01:00,
2013-01-09 00:03:00,31.2,26.6,30.20,WNW,289,0.0,0.0,83,0.00,,---,0.00,VWS V14.01,2013-01-09 06:03:00,
2013-01-09 00:04:00,31.3,26.8,30.20,WNW,289,0.0,0.0,83,0.00,,---,0.00,VWS V14.01,2013-01-09 06:04:00,
2013-01-09 00:05:00,31.5,26.9,30.20,WNW,289,0.0,0.0,83,0.00,,---,0.00,VWS V14.01,2013-01-09 06:05:00,
2013-01-09 00:06:00,31.5,26.9,30.20,WNW,289,0.0,0.0,83,0.00,,---,0.00,VWS V14.01,2013-01-09 06:06:00,
2013-01-09 00:08:00,31.8,27.2,30.20,WNW,289,0.0,0.0,83,0.00,,---,0.00,VWS V14.01,2013-01-09 06:08:00,
2013-01-09 00:10:00,31.9,27.3,30.20,WNW,289,0.0,0.0,83,0.00,,---,0.00,VWS V14.01,2013-01-09 06:10:00,
2013-01-09 00:11:00,32.1,27.2,30.20,WNW,289,0.0,0.0,82,0.00,,---,0.00,VWS V14.01,2013-01-09 06:11:00,
2013-01-09 00:13:00,32.1,27.2,30.20,WNW,289,0.0,0.0,82,0.00,,---,0.00,VWS V14.01,2013-01-09 06:13:00,
2013-01-09 00:15:00,32.1,27.2,30.20,WNW,289,0.0,0.0,82,0.00,,---,0.00,VWS V14.01,2013-01-09 06:15:00,
2013-01-09 00:16:00,32.1,27.2,30.20,WNW,289,0.0,0.0,82,0.00,,---,0.00,VWS V14.01,2013-01-09 06:16:00,
2013-01-09 00:18:00,32.1,27.2,30.20,WNW,289,0.0,0.0,82,0.00,,---,0.00,VWS V14.01,2013-01-09 06:18:00,
2013-01-09 00:20:00,32.1,27.2,30.20,WNW,289,0.0,0.0,82,0.00,,---,0.00,VWS V14.01,2013-01-09 06:20:00,
2013-01-09 00:22:00,31.9,27.0,30.20,WNW,289,0.0,0.0,82,0.00,,---,0.00,VWS V14.01,2013-01-09 06:22:00,
2013-01-09 00:23:00,31.9,27.0,30.20,WNW,289,0.0,0.0,82,0.00,,---,0.00,VWS V14.01,2013-01-09 06:23:00,
2013-01-09 00:25:00,31.8,26.6,30.20,WNW,289,0.0,0.0,81,0.00,,---,0.00,VWS V14.01,2013-01-09 06:25:00,
2013-01-09 00:27:00,31.8,26.6,30.20,WNW,289,0.0,0.0,81,0.00,,---,0.00,VWS V14.01,2013-01-09 06:27:00,
2013-01-09 00:28:00,31.6,26.5,30.20,WNW,289,0.0,0.0,81,0.00,,---,0.00,VWS V14.01,2013-01-09 06:28:00,
2013-01-09 00:30:00,31.5,26.4,30.20,WNW,289,0.0,0.0,81,0.00,,---,0.00,VWS V14.01,2013-01-09 06:30:00,
2013-01-09 00:31:00,31.5,26.4,30.20,WNW,289,0.0,0.0,81,0.00,,---,0.00,VWS V14.01,2013-01-09 06:31:00,
2013-01-09 00:32:00,31.3,26.2,30.20,WNW,289,0.0,0.0,81,0.00,,---,0.00,VWS V14.01,2013-01-09 06:32:00,
2013-01-09 00:33:00,31.3,26.2,30.20,WNW,289,0.0,0.0,81,0.00,,---,0.00,VWS V14.01,2013-01-09 06:33:00,
2013-01-09 00:36:00,31.2,26.1,30.20,WNW,289,0.0,0.0,81,0.00,,---,0.00,VWS V14.01,2013-01-09 06:36:00,
2013-01-09 00:37:00,31.2,26.1,30.20,WNW,289,0.0,0.0,81,0.00,,---,0.00,VWS V14.01,2013-01-09 06:37:00,
2013-01-09 00:38:00,31.2,26.4,30.20,WNW,289,0.0,0.0,82,0.00,,---,0.00,VWS V14.01,2013-01-09 06:38:00,
2013-01-09 00:41:00,31.0,26.2,30.20,WNW,289,0.0,0.0,82,0.00,,---,0.00,VWS V14.01,2013-01-09 06:41:00,
2013-01-09 00:42:00,31.0,26.2,30.20,WNW,289,0.0,0.0,82,0.00,,---,0.00,VWS V14.01,2013-01-09 06:42:00,
2013-01-09 00:44:00,31.0,26.2,30.20,WNW,289,0.0,0.0,82,0.00,,---,0.00,VWS V14.01,2013-01-09 06:44:00,
2013-01-09 00:46:00,30.9,26.1,30.20,WNW,289,0.0,0.0,82,0.00,,---,0.00,VWS V14.01,2013-01-09 06:46:00,
2013-01-09 00:47:00,30.9,26.1,30.20,WNW,289,0.0,0.0,82,0.00,,---,0.00,VWS V14.01,2013-01-09 06:47:00,
2013-01-09 00:49:00,30.7,25.9,30.20,WNW,289,0.0,0.0,82,0.00,,---,0.00,VWS V14.01,2013-01-09 06:49:00,
2013-01-09 00:51:00,30.6,25.8,30.20,WNW,289,0.0,0.0,82,0.00,,---,0.00,VWS V14.01,2013-01-09 06:51:00,
2013-01-09 00:52:00,30.6,25.8,30.20,WNW,289,0.0,0.0,82,0.00,,---,0.00,VWS V14.01,2013-01-09 06:52:00,
2013-01-09 00:54:00,30.6,25.8,30.20,WNW,289,0.0,0.0,82,0.00,,---,0.00,VWS V14.01,2013-01-09 06:54:00,
2013-01-09 00:57:00,30.4,25.6,30.20,WNW,289,0.0,0.0,82,0.00,,---,0.00,VWS V14.01,2013-01-09 06:57:00,
2013-01-09 00:58:00,30.4,25.6,30.20,WNW,289,0.0,0.0,82,0.00,,---,0.00,VWS V14.01,2013-01-09 06:58:00,
2013-01-09 00:59:00,30.4,25.6,30.20,WNW,289,0.0,0.0,82,0.00,,---,0.00,VWS V14.01,2013-01-09 06:59:00,
2013-01-09 01:02:00,30.3,25.5,30.22,WNW,289,0.0,0.0,82,0.00,,---,0.00,VWS V14.01,2013-01-09 07:02:00,
2013-01-09 01:03:00,30.3,25.5,30.22,WNW,289,0.0,0.0,82,0.00,,---,0.00,VWS V14.01,2013-01-09 07:03:00,
2013-01-09 01:05:00,30.3,25.8,30.22,WNW,289,0.0,0.0,83,0.00,,---,0.00,VWS V14.01,2013-01-09 07:05:00,
2013-01-09 01:07:00,30.3,25.8,30.22,WNW,289,0.0,0.0,83,0.00,,---,0.00,VWS V14.01,2013-01-09 07:07:00,
2013-01-09 01:09:00,30.3,25.8,30.22,WNW,289,0.0,0.0,83,0.00,,---,0.00,VWS V14.01,2013-01-09 07:09:00,
2013-01-09 01:10:00,30.1,25.6,30.22,WNW,289,0.0,0.0,83,0.00,,---,0.00,VWS V14.01,2013-01-09 07:10:00,
2013-01-09 01:12:00,30.1,25.6,30.22,WNW,289,0.0,0.0,83,0.00,,---,0.00,VWS V14.01,2013-01-09 07:12:00,
2013-01-09 01:14:00,30.0,25.5,30.22,WNW,289,0.0,0.0,83,0.00,,---,0.00,VWS V14.01,2013-01-09 07:14:00,
2013-01-09 01:15:00,29.8,25.3,30.22,WNW,289,0.0,0.0,83,0.00,,---,0.00,VWS V14.01,2013-01-09 07:15:00,
2013-01-09 01:17:00,29.5,25.0,30.22,WNW,289,0.0,0.0,83,0.00,,---,0.00,VWS V14.01,2013-01-09 07:17:00,
2013-01-09 01:19:00,29.4,24.9,30.22,WNW,289,0.0,0.0,83,0.00,,---,0.00,VWS V14.01,2013-01-09 07:19:00,
2013-01-09 01:20:00,29.4,24.9,30.22,WNW,289,0.0,0.0,83,0.00,,---,0.00,VWS V14.01,2013-01-09 07:20:00,
2013-01-09 01:22:00,29.3,24.8,30.22,WNW,289,0.0,0.0,83,0.00,,---,0.00,VWS V14.01,2013-01-09 07:22:00,
2013-01-09 01:24:00,29.0,24.5,30.22,WNW,289,0.0,0.0,83,0.00,,---,0.00,VWS V14.01,2013-01-09 07:24:00,
2013-01-09 01:26:00,29.0,24.5,30.22,WNW,289,0.0,0.0,83,0.00,,---,0.00,VWS V14.01,2013-01-09 07:26:00,
2013-01-09 01:27:00,28.8,24.6,30.22,WNW,289,0.0,0.0,84,0.00,,---,0.00,VWS V14.01,2013-01-09 07:27:00,
2013-01-09 01:29:00,28.8,24.6,30.22,WNW,289,0.0,0.0,84,0.00,,---,0.00,VWS V14.01,2013-01-09 07:29:00,
2013-01-09 01:31:00,28.8,24.6,30.23,WNW,289,0.0,0.0,84,0.00,,---,0.00,VWS V14.01,2013-01-09 07:31:00,
2013-01-09 01:32:00,28.7,24.5,30.23,WNW,289,0.0,0.0,84,0.00,,---,0.00,VWS V14.01,2013-01-09 07:32:00,
2013-01-09 01:33:00,28.7,24.5,30.23,WNW,289,0.0,0.0,84,0.00,,---,0.00,VWS V14.01,2013-01-09 07:33:00,
2013-01-09 01:34:00,28.7,24.5,30.23,WNW,289,0.0,0.0,84,0.00,,---,0.00,VWS V14.01,2013-01-09 07:34:00,
2013-01-09 01:36:00,28.7,24.8,30.23,WNW,289,0.0,0.0,85,0.00,,---,0.00,VWS V14.01,2013-01-09 07:36:00,
2013-01-09 01:37:00,28.8,24.9,30.23,WNW,289,0.0,0.0,85,0.00,,---,0.00,VWS V14.01,2013-01-09 07:37:00,
2013-01-09 01:38:00,28.8,24.9,30.23,WNW,289,0.0,0.0,85,0.00,,---,0.00,VWS V14.01,2013-01-09 07:38:00,
2013-01-09 01:39:00,28.8,24.9,30.23,WNW,289,0.0,0.0,85,0.00,,---,0.00,VWS V14.01,2013-01-09 07:39:00,
2013-01-09 01:41:00,28.8,24.9,30.23,WNW,289,0.0,0.0,85,0.00,,---,0.00,VWS V14.01,2013-01-09 07:41:00,
2013-01-09 01:43:00,28.8,24.9,30.23,WNW,289,0.0,0.0,85,0.00,,---,0.00,VWS V14.01,2013-01-09 07:43:00,
2013-01-09 01:45:00,29.0,25.1,30.23,WNW,289,0.0,0.0,85,0.00,,---,0.00,VWS V14.01,2013-01-09 07:45:00,
2013-01-09 01:46:00,28.8,24.9,30.23,WNW,289,0.0,0.0,85,0.00,,---,0.00,VWS V14.01,2013-01-09 07:46:00,
2013-01-09 01:48:00,28.8,24.9,30.23,WNW,289,0.0,0.0,85,0.00,,---,0.00,VWS V14.01,2013-01-09 07:48:00,
2013-01-09 01:50:00,28.8,24.9,30.23,WNW,289,0.0,0.0,85,0.00,,---,0.00,VWS V14.01,2013-01-09 07:50:00,
2013-01-09 01:51:00,28.8,24.9,30.23,WNW,289,0.0,0.0,85,0.00,,---,0.00,VWS V14.01,2013-01-09 07:51:00,
2013-01-09 01:53:00,28.8,24.9,30.23,WNW,289,0.0,0.0,85,0.00,,---,0.00,VWS V14.01,2013-01-09 07:53:00,
2013-01-09 01:56:00,28.8,24.9,30.23,WNW,289,0.0,0.0,85,0.00,,---,0.00,VWS V14.01,2013-01-09 07:56:00,
2013-01-09 01:58:00,28.7,24.8,30.23,WNW,289,0.0,0.0,85,0.00,,---,0.00,VWS V14.01,2013-01-09 07:58:00,
2013-01-09 02:01:00,28.5,24.6,30.24,WNW,289,0.0,0.0,85,0.00,,---,0.00,VWS V14.01,2013-01-09 08:01:00,
2013-01-09 02:03:00,28.4,24.5,30.24,WNW,289,0.0,0.0,85,0.00,,---,0.00,VWS V14.01,2013-01-09 08:03:00,
2013-01-09 02:06:00,28.2,24.3,30.24,WNW,289,0.0,0.0,85,0.00,,---,0.00,VWS V14.01,2013-01-09 08:06:00,
2013-01-09 02:08:00,27.9,24.0,30.24,WNW,289,0.0,0.0,85,0.00,,---,0.00,VWS V14.01,2013-01-09 08:08:00,
2013-01-09 02:09:00,27.8,23.9,30.24,WNW,289,0.0,0.0,85,0.00,,---,0.00,VWS V14.01,2013-01-09 08:09:00,
2013-01-09 02:11:00,27.6,23.7,30.24,WNW,289,0.0,0.0,85,0.00,,---,0.00,VWS V14.01,2013-01-09 08:11:00,
2013-01-09 02:12:00,27.6,23.7,30.24,WNW,289,0.0,0.0,85,0.00,,---,0.00,VWS V14.01,2013-01-09 08:12:00,
2013-01-09 02:14:00,27.5,23.6,30.24,WNW,289,0.0,0.0,85,0.00,,---,0.00,VWS V14.01,2013-01-09 08:14:00,
2013-01-09 02:16:00,27.3,23.7,30.25,WNW,289,0.0,0.0,86,0.00,,---,0.00,VWS V14.01,2013-01-09 08:16:00,
2013-01-09 02:17:00,27.3,23.7,30.25,WNW,289,0.0,0.0,86,0.00,,---,0.00,VWS V14.01,2013-01-09 08:17:00,
2013-01-09 02:19:00,27.5,24.1,30.25,WNW,289,0.0,0.0,87,0.00,,---,0.00,VWS V14.01,2013-01-09 08:19:00,
2013-01-09 02:21:00,27.6,24.2,30.25,WNW,289,0.0,0.0,87,0.00,,---,0.00,VWS V14.01,2013-01-09 08:21:00,
2013-01-09 02:22:00,27.8,24.4,30.25,WNW,289,0.0,0.0,87,0.00,,---,0.00,VWS V14.01,2013-01-09 08:22:00,
2013-01-09 02:24:00,27.9,24.5,30.25,WNW,289,0.0,0.0,87,0.00,,---,0.00,VWS V14.01,2013-01-09 08:24:00,
2013-01-09 02:26:00,27.9,24.5,30.25,WNW,289,0.0,0.0,87,0.00,,---,0.00,VWS V14.01,2013-01-09 08:26:00,
2013-01-09 02:27:00,27.9,24.5,30.25,WNW,289,0.0,0.0,87,0.00,,---,0.00,VWS V14.01,2013-01-09 08:27:00,
2013-01-09 02:29:00,28.1,24.7,30.25,WNW,289,0.0,0.0,87,0.00,,---,0.00,VWS V14.01,2013-01-09 08:29:00,
2013-01-09 02:31:00,28.1,24.7,30.26,WNW,289,0.0,0.0,87,0.00,,---,0.00,VWS V14.01,2013-01-09 08:31:00,
2013-01-09 02:32:00,28.1,24.7,30.26,WNW,289,0.0,0.0,87,0.00,,---,0.00,VWS V14.01,2013-01-09 08:32:00,
2013-01-09 02:34:00,28.1,24.7,30.26,WNW,289,0.0,0.0,87,0.00,,---,0.00,VWS V14.01,2013-01-09 08:34:00,
2013-01-09 02:35:00,28.1,24.7,30.26,WNW,289,0.0,0.0,87,0.00,,---,0.00,VWS V14.01,2013-01-09 08:35:00,
2013-01-09 02:36:00,28.1,24.7,30.26,WNW,289,0.0,0.0,87,0.00,,---,0.00,VWS V14.01,2013-01-09 08:36:00,
2013-01-09 02:37:00,28.1,24.7,30.26,WNW,289,0.0,0.0,87,0.00,,---,0.00,VWS V14.01,2013-01-09 08:37:00,
2013-01-09 02:39:00,28.1,24.7,30.26,WNW,289,0.0,0.0,87,0.00,,---,0.00,VWS V14.01,2013-01-09 08:39:00,
2013-01-09 02:40:00,28.1,24.7,30.26,WNW,289,0.0,0.0,87,0.00,,---,0.00,VWS V14.01,2013-01-09 08:40:00,
2013-01-09 02:42:00,28.1,24.7,30.26,WNW,289,0.0,0.0,87,0.00,,---,0.00,VWS V14.01,2013-01-09 08:42:00,
2013-01-09 02:44:00,28.1,24.7,30.26,WNW,289,0.0,0.0,87,0.00,,---,0.00,VWS V14.01,2013-01-09 08:44:00,
2013-01-09 02:45:00,28.1,24.7,30.26,WNW,289,0.0,0.0,87,0.00,,---,0.00,VWS V14.01,2013-01-09 08:45:00,
2013-01-09 02:47:00,28.2,24.8,30.26,WNW,289,0.0,0.0,87,0.00,,---,0.00,VWS V14.01,2013-01-09 08:47:00,
2013-01-09 02:49:00,28.4,25.0,30.26,WNW,289,0.0,0.0,87,0.00,,---,0.00,VWS V14.01,2013-01-09 08:49:00,
2013-01-09 02:50:00,28.4,25.0,30.26,WNW,289,0.0,0.0,87,0.00,,---,0.00,VWS V14.01,2013-01-09 08:50:00,
2013-01-09 02:52:00,28.4,25.0,30.26,WNW,289,0.0,0.0,87,0.00,,---,0.00,VWS V14.01,2013-01-09 08:52:00,
2013-01-09 02:54:00,28.5,25.1,30.26,WNW,289,0.0,0.0,87,0.00,,---,0.00,VWS V14.01,2013-01-09 08:54:00,
2013-01-09 02:55:00,28.5,25.4,30.26,WNW,289,0.0,0.0,88,0.00,,---,0.00,VWS V14.01,2013-01-09 08:55:00,
2013-01-09 02:57:00,28.7,25.3,30.26,WNW,289,0.0,0.0,87,0.00,,---,0.00,VWS V14.01,2013-01-09 08:57:00,
2013-01-09 02:58:00,28.8,25.4,30.26,WNW,289,0.0,0.0,87,0.00,,---,0.00,VWS V14.01,2013-01-09 08:58:00,
2013-01-09 03:00:00,28.8,25.4,30.26,WNW,289,0.0,0.0,87,0.00,,---,0.00,VWS V14.01,2013-01-09 09:00:00,
2013-01-09 03:02:00,29.0,25.6,30.26,WNW,289,0.0,0.0,87,0.00,,---,0.00,VWS V14.01,2013-01-09 09:02:00,
2013-01-09 03:03:00,29.0,25.9,30.26,WNW,289,0.0,0.0,88,0.00,,---,0.00,VWS V14.01,2013-01-09 09:03:00,
2013-01-09 03:05:00,29.1,26.0,30.26,WNW,289,0.0,0.0,88,0.00,,---,0.00,VWS V14.01,2013-01-09 09:05:00,
2013-01-09 03:07:00,29.4,26.0,30.26,WNW,289,0.0,0.0,87,0.00,,---,0.00,VWS V14.01,2013-01-09 09:07:00,
2013-01-09 03:08:00,29.4,26.0,30.26,WNW,289,0.0,0.0,87,0.00,,---,0.00,VWS V14.01,2013-01-09 09:08:00,
2013-01-09 03:10:00,29.4,26.0,30.26,WNW,289,0.0,0.0,87,0.00,,---,0.00,VWS V14.01,2013-01-09 09:10:00,
2013-01-09 03:13:00,29.5,26.1,30.26,WNW,289,0.0,0.0,87,0.00,,---,0.00,VWS V14.01,2013-01-09 09:13:00,
2013-01-09 03:15:00,29.5,26.1,30.26,WNW,289,0.0,0.0,87,0.00,,---,0.00,VWS V14.01,2013-01-09 09:15:00,
2013-01-09 03:16:00,29.5,26.1,30.26,WNW,289,0.0,0.0,87,0.00,,---,0.00,VWS V14.01,2013-01-09 09:16:00,
2013-01-09 03:18:00,29.5,26.1,30.26,WNW,289,0.0,0.0,87,0.00,,---,0.00,VWS V14.01,2013-01-09 09:18:00,
2013-01-09 03:20:00,29.5,26.1,30.26,WNW,289,0.0,0.0,87,0.00,,---,0.00,VWS V14.01,2013-01-09 09:20:00,
2013-01-09 03:21:00,29.5,26.1,30.26,WNW,289,0.0,0.0,87,0.00,,---,0.00,VWS V14.01,2013-01-09 09:21:00,
2013-01-09 03:23:00,29.7,26.3,30.26,WNW,289,3.0,3.0,87,0.00,,---,0.00,VWS V14.01,2013-01-09 09:23:00,
2013-01-09 03:24:00,29.7,26.3,30.26,WNW,289,2.0,3.0,87,0.00,,---,0.00,VWS V14.01,2013-01-09 09:24:00,
2013-01-09 03:25:00,29.8,26.4,30.26,WNW,289,2.0,3.0,87,0.00,,---,0.00,VWS V14.01,2013-01-09 09:25:00,
2013-01-09 03:26:00,29.8,26.4,30.26,WNW,289,3.0,4.0,87,0.00,,---,0.00,VWS V14.01,2013-01-09 09:26:00,
2013-01-09 03:28:00,29.8,26.4,30.26,WNW,289,2.0,4.0,87,0.00,,---,0.00,VWS V14.01,2013-01-09 09:28:00,
2013-01-09 03:29:00,30.0,26.6,30.26,WNW,289,3.0,4.0,87,0.00,,---,0.00,VWS V14.01,2013-01-09 09:29:00,
2013-01-09 03:30:00,30.1,26.7,30.28,WNW,289,3.0,4.0,87,0.00,,---,0.00,VWS V14.01,2013-01-09 09:30:00,
2013-01-09 03:31:00,30.1,26.7,30.28,WNW,289,2.0,3.0,87,0.00,,---,0.00,VWS V14.01,2013-01-09 09:31:00,
2013-01-09 03:33:00,30.1,26.4,30.28,WNW,289,1.0,3.0,86,0.00,,---,0.00,VWS V14.01,2013-01-09 09:33:00,
2013-01-09 03:34:00,30.1,26.4,30.28,WNW,289,2.0,3.0,86,0.00,,---,0.00,VWS V14.01,2013-01-09 09:34:00,
2013-01-09 03:36:00,30.1,26.4,30.28,WNW,289,0.0,3.0,86,0.00,,---,0.00,VWS V14.01,2013-01-09 09:36:00,
2013-01-09 03:38:00,30.3,26.6,30.28,WNW,289,0.0,3.0,86,0.00,,---,0.00,VWS V14.01,2013-01-09 09:38:00,
2013-01-09 03:39:00,30.3,26.6,30.28,WNW,289,0.0,3.0,86,0.00,,---,0.00,VWS V14.01,2013-01-09 09:39:00,
2013-01-09 03:41:00,30.3,26.6,30.28,WNW,289,0.0,0.0,86,0.00,,---,0.00,VWS V14.01,2013-01-09 09:41:00,
2013-01-09 03:43:00,30.3,26.3,30.28,WNW,289,0.0,0.0,85,0.00,,---,0.00,VWS V14.01,2013-01-09 09:43:00,
2013-01-09 03:45:00,30.1,26.1,30.28,WNW,289,0.0,0.0,85,0.00,,---,0.00,VWS V14.01,2013-01-09 09:45:00,
2013-01-09 03:46:00,30.1,26.1,30.28,WNW,289,0.0,0.0,85,0.00,,---,0.00,VWS V14.01,2013-01-09 09:46:00,
2013-01-09 03:48:00,29.8,25.9,30.28,WNW,289,0.0,0.0,85,0.00,,---,0.00,VWS V14.01,2013-01-09 09:48:00,
2013-01-09 03:50:00,29.7,25.8,30.28,WNW,289,0.0,0.0,85,0.00,,---,0.00,VWS V14.01,2013-01-09 09:50:00,
2013-01-09 03:51:00,29.5,25.3,30.28,WNW,289,0.0,0.0,84,0.00,,---,0.00,VWS V14.01,2013-01-09 09:51:00,
2013-01-09 03:53:00,29.4,25.2,30.28,WNW,289,0.0,0.0,84,0.00,,---,0.00,VWS V14.01,2013-01-09 09:53:00,
2013-01-09 03:55:00,29.4,25.5,30.28,WNW,289,0.0,0.0,85,0.00,,---,0.00,VWS V14.01,2013-01-09 09:55:00,
2013-01-09 03:56:00,29.3,25.4,30.28,WNW,289,0.0,0.0,85,0.00,,---,0.00,VWS V14.01,2013-01-09 09:56:00,
2013-01-09 03:57:00,29.4,25.5,30.28,WNW,289,0.0,0.0,85,0.00,,---,0.00,VWS V14.01,2013-01-09 09:57:00,
2013-01-09 03:58:00,29.4,25.5,30.28,WNW,289,0.0,0.0,85,0.00,,---,0.00,VWS V14.01,2013-01-09 09:58:00,
2013-01-09 04:00:00,29.4,25.7,30.28,WNW,289,0.0,0.0,86,0.00,,---,0.00,VWS V14.01,2013-01-09 10:00:00,
2013-01-09 04:01:00,29.4,25.5,30.28,WNW,289,0.0,0.0,85,0.00,,---,0.00,VWS V14.01,2013-01-09 10:01:00,
2013-01-09 04:02:00,29.4,25.5,30.28,WNW,289,0.0,0.0,85,0.00,,---,0.00,VWS V14.01,2013-01-09 10:02:00,
2013-01-09 04:03:00,29.4,25.5,30.28,WNW,289,0.0,0.0,85,0.00,,---,0.00,VWS V14.01,2013-01-09 10:03:00,
2013-01-09 04:05:00,29.3,25.1,30.28,WNW,289,0.0,0.0,84,0.00,,---,0.00,VWS V14.01,2013-01-09 10:05:00,
2013-01-09 04:06:00,29.1,24.9,30.28,WNW,289,0.0,0.0,84,0.00,,---,0.00,VWS V14.01,2013-01-09 10:06:00,
2013-01-09 04:07:00,29.1,24.9,30.28,WNW,289,0.0,0.0,84,0.00,,---,0.00,VWS V14.01,2013-01-09 10:07:00,
2013-01-09 04:08:00,29.0,24.8,30.28,WNW,289,0.0,0.0,84,0.00,,---,0.00,VWS V14.01,2013-01-09 10:08:00,
2013-01-09 04:10:00,28.8,24.6,30.28,WNW,289,0.0,0.0,84,0.00,,---,0.00,VWS V14.01,2013-01-09 10:10:00,
2013-01-09 04:12:00,28.5,24.3,30.28,WNW,289,0.0,0.0,84,0.00,,---,0.00,VWS V14.01,2013-01-09 10:12:00,
2013-01-09 04:13:00,28.4,24.2,30.28,WNW,289,0.0,0.0,84,0.00,,---,0.00,VWS V14.01,2013-01-09 10:13:00,
2013-01-09 04:15:00,28.1,23.9,30.28,WNW,289,0.0,0.0,84,0.00,,---,0.00,VWS V14.01,2013-01-09 10:15:00,
2013-01-09 04:17:00,27.9,23.7,30.28,WNW,289,0.0,0.0,84,0.00,,---,0.00,VWS V14.01,2013-01-09 10:17:00,
2013-01-09 04:19:00,27.9,24.0,30.28,WNW,289,0.0,0.0,85,0.00,,---,0.00,VWS V14.01,2013-01-09 10:19:00,
2013-01-09 04:20:00,27.9,24.0,30.28,WNW,289,0.0,0.0,85,0.00,,---,0.00,VWS V14.01,2013-01-09 10:20:00,
2013-01-09 04:22:00,27.9,24.0,30.28,WNW,289,0.0,0.0,85,0.00,,---,0.00,VWS V14.01,2013-01-09 10:22:00,
2013-01-09 04:24:00,28.1,24.5,30.28,WNW,289,0.0,0.0,86,0.00,,---,0.00,VWS V14.01,2013-01-09 10:24:00,
2013-01-09 04:25:00,28.1,24.5,30.28,WNW,289,0.0,0.0,86,0.00,,---,0.00,VWS V14.01,2013-01-09 10:25:00,
2013-01-09 04:27:00,28.2,24.6,30.28,WNW,289,0.0,0.0,86,0.00,,---,0.00,VWS V14.01,2013-01-09 10:27:00,
2013-01-09 04:29:00,28.2,24.6,30.28,WNW,289,0.0,0.0,86,0.00,,---,0.00,VWS V14.01,2013-01-09 10:29:00,
2013-01-09 04:30:00,28.2,24.6,30.29,WNW,289,0.0,0.0,86,0.00,,---,0.00,VWS V14.01,2013-01-09 10:30:00,
2013-01-09 04:32:00,28.1,24.5,30.29,WNW,289,0.0,0.0,86,0.00,,---,0.00,VWS V14.01,2013-01-09 10:32:00,
2013-01-09 04:34:00,28.1,24.5,30.29,WNW,289,0.0,0.0,86,0.00,,---,0.00,VWS V14.01,2013-01-09 10:34:00,
2013-01-09 04:35:00,27.9,24.3,30.29,WNW,289,0.0,0.0,86,0.00,,---,0.00,VWS V14.01,2013-01-09 10:35:00,
2013-01-09 04:37:00,27.6,23.7,30.29,WNW,289,0.0,0.0,85,0.00,,---,0.00,VWS V14.01,2013-01-09 10:37:00,
2013-01-09 04:39:00,27.3,23.4,30.29,WNW,289,0.0,0.0,85,0.00,,---,0.00,VWS V14.01,2013-01-09 10:39:00,
2013-01-09 04:40:00,27.2,23.3,30.29,WNW,289,0.0,0.0,85,0.00,,---,0.00,VWS V14.01,2013-01-09 10:40:00,
2013-01-09 04:42:00,27.0,23.1,30.29,WNW,289,0.0,0.0,85,0.00,,---,0.00,VWS V14.01,2013-01-09 10:42:00,
2013-01-09 04:44:00,27.2,23.6,30.29,WNW,289,0.0,0.0,86,0.00,,---,0.00,VWS V14.01,2013-01-09 10:44:00,
2013-01-09 04:45:00,27.2,23.9,30.30,WNW,289,0.0,0.0,87,0.00,,---,0.00,VWS V14.01,2013-01-09 10:45:00,
2013-01-09 04:47:00,27.5,24.1,30.30,WNW,289,0.0,0.0,87,0.00,,---,0.00,VWS V14.01,2013-01-09 10:47:00,
2013-01-09 04:49:00,27.6,24.2,30.30,WNW,289,0.0,0.0,87,0.00,,---,0.00,VWS V14.01,2013-01-09 10:49:00,
2013-01-09 04:51:00,27.6,24.2,30.30,WNW,289,0.0,0.0,87,0.00,,---,0.00,VWS V14.01,2013-01-09 10:51:00,
2013-01-09 04:52:00,27.8,24.4,30.30,WNW,289,0.0,0.0,87,0.00,,---,0.00,VWS V14.01,2013-01-09 10:52:00,
2013-01-09 04:53:00,27.8,24.4,30.30,WNW,289,0.0,0.0,87,0.00,,---,0.00,VWS V14.01,2013-01-09 10:53:00,
2013-01-09 05:54:00,27.8,24.4,30.30,WNW,289,0.0,0.0,87,0.00,,---,0.00,VWS V14.01,2013-01-09 11:54:00,
2013-01-09 05:59:00,25.7,22.6,30.31,WNW,289,0.0,0.0,88,0.00,,---,0.00,VWS V14.01,2013-01-09 11:59:00,
2013-01-09 06:04:00,25.7,22.6,30.31,WNW,289,0.0,0.0,88,0.00,,---,0.00,VWS V14.01,2013-01-09 12:04:00,
2013-01-09 06:09:00,25.7,22.6,30.31,WNW,289,0.0,0.0,88,0.00,,---,0.00,VWS V14.01,2013-01-09 12:09:00,
2013-01-09 06:14:00,25.7,22.6,30.31,WNW,289,0.0,0.0,88,0.00,,---,0.00,VWS V14.01,2013-01-09 12:14:00,
2013-01-09 06:19:00,25.6,22.5,30.33,WNW,289,0.0,0.0,88,0.00,,---,0.00,VWS V14.01,2013-01-09 12:19:00,
2013-01-09 06:24:00,25.4,22.4,30.33,WNW,289,0.0,0.0,88,0.00,,---,0.00,VWS V14.01,2013-01-09 12:24:00,
2013-01-09 06:25:00,25.3,22.2,30.33,WNW,289,0.0,0.0,88,0.00,,---,0.00,VWS V14.01,2013-01-09 12:25:00,
2013-01-09 06:29:00,25.3,22.5,30.33,WNW,289,0.0,0.0,89,0.00,,---,0.00,VWS V14.01,2013-01-09 12:29:00,
2013-01-09 06:30:00,25.3,22.5,30.33,WNW,289,0.0,0.0,89,0.00,,---,0.00,VWS V14.01,2013-01-09 12:30:00,
2013-01-09 06:34:00,25.1,22.3,30.33,WNW,289,0.0,0.0,89,0.00,,---,0.00,VWS V14.01,2013-01-09 12:34:00,
2013-01-09 06:35:00,25.1,22.3,30.33,WNW,289,0.0,0.0,89,0.00,,---,0.00,VWS V14.01,2013-01-09 12:35:00,
2013-01-09 06:37:00,25.1,22.3,30.33,WNW,289,0.0,0.0,89,0.00,,---,0.00,VWS V14.01,2013-01-09 12:37:00,
2013-01-09 06:40:00,25.1,22.3,30.33,WNW,289,0.0,0.0,89,0.00,,---,0.00,VWS V14.01,2013-01-09 12:40:00,
2013-01-09 06:42:00,25.0,22.2,30.33,WNW,289,0.0,0.0,89,0.00,,---,0.00,VWS V14.01,2013-01-09 12:42:00,
2013-01-09 06:45:00,25.0,22.2,30.34,WNW,289,0.0,0.0,89,0.00,,---,0.00,VWS V14.01,2013-01-09 12:45:00,
2013-01-09 06:47:00,25.0,22.2,30.34,WNW,289,0.0,0.0,89,0.00,,---,0.00,VWS V14.01,2013-01-09 12:47:00,
2013-01-09 06:50:00,25.0,22.2,30.34,WNW,289,0.0,0.0,89,0.00,,---,0.00,VWS V14.01,2013-01-09 12:50:00,
2013-01-09 06:52:00,25.0,22.5,30.34,WNW,289,0.0,0.0,90,0.00,,---,0.00,VWS V14.01,2013-01-09 12:52:00,
2013-01-09 06:55:00,25.0,22.2,30.34,WNW,289,0.0,0.0,89,0.00,,---,0.00,VWS V14.01,2013-01-09 12:55:00,
2013-01-09 06:57:00,24.8,22.0,30.34,WNW,289,0.0,0.0,89,0.00,,---,0.00,VWS V14.01,2013-01-09 12:57:00,
2013-01-09 07:00:00,24.7,21.9,30.35,WNW,289,0.0,0.0,89,0.00,,---,0.00,VWS V14.01,2013-01-09 13:00:00,
2013-01-09 07:01:00,24.7,21.9,30.35,WNW,289,0.0,0.0,89,0.00,,---,0.00,VWS V14.01,2013-01-09 13:01:00,
2013-01-09 07:02:00,24.7,22.2,30.35,WNW,289,1.0,1.0,90,0.00,,---,0.00,VWS V14.01,2013-01-09 13:02:00,
2013-01-09 07:05:00,24.7,22.2,30.35,WNW,289,0.0,2.0,90,0.00,,---,0.00,VWS V14.01,2013-01-09 13:05:00,
2013-01-09 07:06:00,24.7,22.2,30.35,WNW,289,0.0,2.0,90,0.00,,---,0.00,VWS V14.01,2013-01-09 13:06:00,
2013-01-09 07:07:00,24.7,22.2,30.35,WNW,289,0.0,2.0,90,0.00,,---,0.00,VWS V14.01,2013-01-09 13:07:00,
2013-01-09 07:11:00,24.7,22.2,30.35,WNW,289,0.0,0.0,90,0.00,,---,0.00,VWS V14.01,2013-01-09 13:11:00,
2013-01-09 07:12:00,24.7,22.2,30.35,WNW,289,0.0,0.0,90,0.00,,---,0.00,VWS V14.01,2013-01-09 13:12:00,
2013-01-09 07:16:00,24.7,22.2,30.36,WNW,289,0.0,0.0,90,0.00,,---,0.00,VWS V14.01,2013-01-09 13:16:00,
2013-01-09 07:17:00,24.5,22.0,30.36,WNW,289,0.0,0.0,90,0.00,,---,0.00,VWS V14.01,2013-01-09 13:17:00,
2013-01-09 07:21:00,24.4,21.9,30.36,WNW,289,0.0,0.0,90,0.00,,---,0.00,VWS V14.01,2013-01-09 13:21:00,
2013-01-09 07:22:00,24.4,21.9,30.36,WNW,289,0.0,0.0,90,0.00,,---,0.00,VWS V14.01,2013-01-09 13:22:00,
2013-01-09 07:26:00,24.4,21.9,30.36,WNW,289,0.0,0.0,90,0.00,,---,0.00,VWS V14.01,2013-01-09 13:26:00,
2013-01-09 07:27:00,24.4,21.9,30.36,WNW,289,0.0,0.0,90,0.00,,---,0.00,VWS V14.01,2013-01-09 13:27:00,
2013-01-09 07:31:00,24.4,21.9,30.37,WNW,289,0.0,0.0,90,0.00,,---,0.00,VWS V14.01,2013-01-09 13:31:00,
2013-01-09 07:32:00,24.4,21.9,30.37,WNW,289,0.0,0.0,90,0.00,,---,0.00,VWS V14.01,2013-01-09 13:32:00,
2013-01-09 07:36:00,24.4,21.9,30.37,WNW,289,0.0,0.0,90,0.00,,---,0.00,VWS V14.01,2013-01-09 13:36:00,
2013-01-09 07:38:00,24.5,22.0,30.37,WNW,289,0.0,0.0,90,0.00,,---,0.00,VWS V14.01,2013-01-09 13:38:00,
2013-01-09 07:41:00,24.5,22.0,30.37,WNW,289,0.0,0.0,90,0.00,,---,0.00,VWS V14.01,2013-01-09 13:41:00,
2013-01-09 07:42:00,24.5,22.0,30.37,WNW,289,0.0,0.0,90,0.00,,---,0.00,VWS V14.01,2013-01-09 13:42:00,
2013-01-09 07:43:00,24.5,22.0,30.37,WNW,289,0.0,0.0,90,0.00,,---,0.00,VWS V14.01,2013-01-09 13:43:00,
2013-01-09 07:47:00,24.5,22.0,30.39,WNW,289,0.0,0.0,90,0.00,,---,0.00,VWS V14.01,2013-01-09 13:47:00,
2013-01-09 07:48:00,24.5,22.0,30.39,WNW,289,0.0,0.0,90,0.00,,---,0.00,VWS V14.01,2013-01-09 13:48:00,
2013-01-09 07:52:00,24.5,22.2,30.39,WNW,289,0.0,0.0,91,0.00,,---,0.00,VWS V14.01,2013-01-09 13:52:00,
2013-01-09 07:53:00,24.5,22.0,30.39,WNW,289,0.0,0.0,90,0.00,,---,0.00,VWS V14.01,2013-01-09 13:53:00,
2013-01-09 07:57:00,24.7,22.5,30.39,WNW,289,0.0,0.0,91,0.00,,---,0.00,VWS V14.01,2013-01-09 13:57:00,
2013-01-09 07:58:00,24.7,22.5,30.39,WNW,289,0.0,0.0,91,0.00,,---,0.00,VWS V14.01,2013-01-09 13:58:00,
2013-01-09 08:02:00,24.7,22.2,30.40,WNW,289,0.0,0.0,90,0.00,,---,0.00,VWS V14.01,2013-01-09 14:02:00,
2013-01-09 08:03:00,24.7,22.2,30.40,WNW,289,0.0,0.0,90,0.00,,---,0.00,VWS V14.01,2013-01-09 14:03:00,
2013-01-09 08:07:00,24.8,22.3,30.40,WNW,289,0.0,0.0,90,0.00,,---,0.00,VWS V14.01,2013-01-09 14:07:00,
2013-01-09 08:08:00,24.8,22.5,30.40,WNW,289,0.0,0.0,91,0.00,,---,0.00,VWS V14.01,2013-01-09 14:08:00,
2013-01-09 08:12:00,24.7,22.2,30.40,WNW,289,0.0,0.0,90,0.00,,---,0.00,VWS V14.01,2013-01-09 14:12:00,
2013-01-09 08:13:00,24.7,22.2,30.40,WNW,289,0.0,0.0,90,0.00,,---,0.00,VWS V14.01,2013-01-09 14:13:00,
2013-01-09 08:17:00,24.7,22.5,30.42,WNW,289,0.0,0.0,91,0.00,,---,0.00,VWS V14.01,2013-01-09 14:17:00,
2013-01-09 08:18:00,24.7,22.5,30.42,WNW,289,0.0,0.0,91,0.00,,---,0.00,VWS V14.01,2013-01-09 14:18:00,
2013-01-09 08:22:00,24.8,22.5,30.42,WNW,289,0.0,0.0,91,0.00,,---,0.00,VWS V14.01,2013-01-09 14:22:00,
2013-01-09 08:23:00,25.0,22.8,30.42,WNW,289,0.0,0.0,91,0.00,,---,0.00,VWS V14.01,2013-01-09 14:23:00,
2013-01-09 08:28:00,25.1,22.9,30.42,WNW,289,0.0,0.0,91,0.00,,---,0.00,VWS V14.01,2013-01-09 14:28:00,
2013-01-09 08:33:00,25.1,22.6,30.43,WNW,289,0.0,0.0,90,0.00,,---,0.00,VWS V14.01,2013-01-09 14:33:00,
2013-01-09 08:34:00,25.1,22.6,30.43,WNW,289,0.0,0.0,90,0.00,,---,0.00,VWS V14.01,2013-01-09 14:34:00,
2013-01-09 08:38:00,25.1,22.6,30.43,WNW,289,0.0,0.0,90,0.00,,---,0.00,VWS V14.01,2013-01-09 14:38:00,
2013-01-09 08:39:00,25.1,22.6,30.43,WNW,289,0.0,0.0,90,0.00,,---,0.00,VWS V14.01,2013-01-09 14:39:00,
2013-01-09 08:43:00,25.3,23.0,30.43,WNW,289,0.0,0.0,91,0.00,,---,0.00,VWS V14.01,2013-01-09 14:43:00,
2013-01-09 08:44:00,25.3,22.8,30.43,WNW,289,0.0,0.0,90,0.00,,---,0.00,VWS V14.01,2013-01-09 14:44:00,
2013-01-09 08:49:00,25.4,22.9,30.43,WNW,289,0.0,0.0,90,0.00,,---,0.00,VWS V14.01,2013-01-09 14:49:00,
2013-01-09 08:50:00,25.4,22.9,30.43,WNW,289,0.0,0.0,90,0.00,,---,0.00,VWS V14.01,2013-01-09 14:50:00,
2013-01-09 08:54:00,25.4,22.9,30.43,WNW,289,0.0,0.0,90,0.00,,---,0.00,VWS V14.01,2013-01-09 14:54:00,
2013-01-09 08:55:00,25.4,22.9,30.43,WNW,289,0.0,0.0,90,0.00,,---,0.00,VWS V14.01,2013-01-09 14:55:00,
2013-01-09 08:59:00,25.6,23.1,30.43,WNW,289,0.0,0.0,90,0.00,,---,0.00,VWS V14.01,2013-01-09 14:59:00,
2013-01-09 09:00:00,25.6,23.1,30.43,WNW,289,0.0,0.0,90,0.00,,---,0.00,VWS V14.01,2013-01-09 15:00:00,
2013-01-09 09:04:00,25.8,23.3,30.43,WNW,289,0.0,0.0,90,0.00,,---,0.00,VWS V14.01,2013-01-09 15:04:00,
2013-01-09 09:05:00,25.8,23.3,30.43,WNW,289,0.0,0.0,90,0.00,,---,0.00,VWS V14.01,2013-01-09 15:05:00,
2013-01-09 09:09:00,26.1,23.8,30.43,WNW,289,0.0,0.0,91,0.00,,---,0.00,VWS V14.01,2013-01-09 15:09:00,
2013-01-09 09:10:00,26.1,23.8,30.43,WNW,289,0.0,0.0,91,0.00,,---,0.00,VWS V14.01,2013-01-09 15:10:00,
2013-01-09 09:15:00,26.4,24.1,30.44,WNW,289,0.0,0.0,91,0.00,,---,0.00,VWS V14.01,2013-01-09 15:15:00,
2013-01-09 09:20:00,26.9,24.6,30.44,WNW,289,0.0,0.0,91,0.00,,---,0.00,VWS V14.01,2013-01-09 15:20:00,
2013-01-09 09:21:00,27.0,24.7,30.44,WNW,289,0.0,0.0,91,0.00,,---,0.00,VWS V14.01,2013-01-09 15:21:00,
2013-01-09 09:25:00,27.5,25.2,30.44,WNW,289,0.0,0.0,91,0.00,,---,0.00,VWS V14.01,2013-01-09 15:25:00,
2013-01-09 09:26:00,27.5,25.2,30.44,WNW,289,0.0,0.0,91,0.00,,---,0.00,VWS V14.01,2013-01-09 15:26:00,
2013-01-09 09:30:00,27.9,25.6,30.44,WNW,289,0.0,0.0,91,0.00,,---,0.00,VWS V14.01,2013-01-09 15:30:00,
2013-01-09 09:31:00,28.1,25.8,30.44,WNW,289,0.0,0.0,91,0.00,,---,0.00,VWS V14.01,2013-01-09 15:31:00,
2013-01-09 09:35:00,28.4,25.9,30.44,WNW,289,0.0,0.0,90,0.00,,---,0.00,VWS V14.01,2013-01-09 15:35:00,
2013-01-09 09:36:00,28.4,25.9,30.44,WNW,289,0.0,0.0,90,0.00,,---,0.00,VWS V14.01,2013-01-09 15:36:00,
2013-01-09 09:40:00,28.7,26.1,30.44,WNW,289,0.0,0.0,90,0.00,,---,0.00,VWS V14.01,2013-01-09 15:40:00,
2013-01-09 09:41:00,28.7,26.1,30.44,WNW,289,0.0,0.0,90,0.00,,---,0.00,VWS V14.01,2013-01-09 15:41:00,
2013-01-09 09:45:00,29.0,26.4,30.45,WNW,289,0.0,0.0,90,0.00,,---,0.00,VWS V14.01,2013-01-09 15:45:00,
2013-01-09 09:46:00,29.1,26.5,30.45,WNW,289,0.0,0.0,90,0.00,,---,0.00,VWS V14.01,2013-01-09 15:46:00,
2013-01-09 09:47:00,29.1,26.5,30.45,WNW,289,0.0,0.0,90,0.00,,---,0.00,VWS V14.01,2013-01-09 15:47:00,
2013-01-09 09:50:00,29.4,26.8,30.45,WNW,289,0.0,0.0,90,0.00,,---,0.00,VWS V14.01,2013-01-09 15:50:00,
2013-01-09 09:51:00,29.4,26.8,30.45,WNW,289,0.0,0.0,90,0.00,,---,0.00,VWS V14.01,2013-01-09 15:51:00,
2013-01-09 09:52:00,29.5,26.9,30.45,WNW,289,0.0,0.0,90,0.00,,---,0.00,VWS V14.01,2013-01-09 15:52:00,
2013-01-09 09:55:00,29.7,27.1,30.45,WNW,289,1.0,2.0,90,0.00,,---,0.00,VWS V14.01,2013-01-09 15:55:00,
2013-01-09 09:56:00,29.8,27.2,30.45,WNW,289,2.0,2.0,90,0.00,,---,0.00,VWS V14.01,2013-01-09 15:56:00,
2013-01-09 09:57:00,29.8,27.2,30.45,WNW,289,1.0,2.0,90,0.00,,---,0.00,VWS V14.01,2013-01-09 15:57:00,
2013-01-09 10:00:00,30.1,27.5,30.44,WNW,289,0.0,2.0,90,0.00,,---,0.00,VWS V14.01,2013-01-09 16:00:00,
2013-01-09 10:01:00,30.1,27.5,30.44,WNW,289,0.0,0.0,90,0.00,,---,0.00,VWS V14.01,2013-01-09 16:01:00,
2013-01-09 10:02:00,30.3,27.5,30.44,WNW,289,0.0,0.0,89,0.00,,---,0.00,VWS V14.01,2013-01-09 16:02:00,
2013-01-09 10:05:00,30.6,27.8,30.44,WNW,289,0.0,0.0,89,0.00,,---,0.00,VWS V14.01,2013-01-09 16:05:00,
2013-01-09 10:06:00,30.6,27.8,30.44,WNW,289,0.0,0.0,89,0.00,,---,0.00,VWS V14.01,2013-01-09 16:06:00,
2013-01-09 10:07:00,30.7,28.1,30.44,WNW,289,2.0,2.0,90,0.00,,---,0.00,VWS V14.01,2013-01-09 16:07:00,
2013-01-09 10:08:00,30.7,28.1,30.44,WNW,289,2.0,2.0,90,0.00,,---,0.00,VWS V14.01,2013-01-09 16:08:00,
2013-01-09 10:11:00,31.2,28.6,30.44,WNW,289,0.0,0.0,90,0.00,,---,0.00,VWS V14.01,2013-01-09 16:11:00,
2013-01-09 10:13:00,31.5,28.9,30.44,WNW,289,2.0,2.0,90,0.00,,---,0.00,VWS V14.01,2013-01-09 16:13:00,
2013-01-09 10:16:00,32.1,30.6,30.44,WNW,289,3.0,5.0,94,0.00,,---,0.00,VWS V14.01,2013-01-09 16:16:00,
2013-01-09 10:18:00,32.4,30.9,30.44,WNW,303,2.0,10.0,94,0.00,,---,0.00,VWS V14.01,2013-01-09 16:18:00,
2013-01-09 10:21:00,32.9,29.7,30.44,SSE,166,13.0,14.0,88,0.00,,---,0.00,VWS V14.01,2013-01-09 16:21:00,
2013-01-09 10:22:00,33.1,29.9,30.44,South,184,13.0,16.0,88,0.00,,---,0.00,VWS V14.01,2013-01-09 16:22:00,
2013-01-09 10:23:00,33.1,29.7,30.44,South,184,12.0,16.0,87,0.00,,---,0.00,VWS V14.01,2013-01-09 16:23:00,
2013-01-09 10:26:00,32.8,29.1,30.44,South,184,5.0,16.0,86,0.00,,---,0.00,VWS V14.01,2013-01-09 16:26:00,
2013-01-09 10:27:00,32.8,29.1,30.44,South,184,2.0,16.0,86,0.00,,---,0.00,VWS V14.01,2013-01-09 16:27:00,
2013-01-09 10:28:00,32.8,29.1,30.44,South,184,1.0,16.0,86,0.00,,---,0.00,VWS V14.01,2013-01-09 16:28:00,
2013-01-09 10:31:00,33.4,30.0,30.44,SSE,163,13.0,16.0,87,0.00,,---,0.00,VWS V14.01,2013-01-09 16:31:00,
2013-01-09 10:33:00,33.5,29.8,30.44,SSE,163,10.0,16.0,86,0.00,,---,0.00,VWS V14.01,2013-01-09 16:33:00,
2013-01-09 10:37:00,33.8,29.8,30.44,SSE,164,0.0,16.0,85,0.00,,---,0.00,VWS V14.01,2013-01-09 16:37:00,
2013-01-09 10:38:00,34.0,30.0,30.44,SSE,164,3.0,16.0,85,0.00,,---,0.00,VWS V14.01,2013-01-09 16:38:00,
2013-01-09 10:42:00,34.1,29.5,30.44,SSE,164,4.0,6.0,83,0.00,,---,0.00,VWS V14.01,2013-01-09 16:42:00,
2013-01-09 10:43:00,34.3,29.7,30.44,SSE,164,3.0,6.0,83,0.00,,---,0.00,VWS V14.01,2013-01-09 16:43:00,
2013-01-09 10:47:00,34.6,30.0,30.44,SSE,164,3.0,6.0,83,0.00,,---,0.00,VWS V14.01,2013-01-09 16:47:00,
2013-01-09 10:48:00,34.6,30.0,30.44,SSE,164,3.0,6.0,83,0.00,,---,0.00,VWS V14.01,2013-01-09 16:48:00,
2013-01-09 10:52:00,34.7,29.8,30.44,SSE,164,0.0,9.0,82,0.00,,---,0.00,VWS V14.01,2013-01-09 16:52:00,
2013-01-09 10:53:00,34.9,30.0,30.44,SSE,164,0.0,9.0,82,0.00,,---,0.00,VWS V14.01,2013-01-09 16:53:00,
2013-01-09 10:57:00,35.2,30.3,30.44,SSE,166,10.0,11.0,82,0.00,,---,0.00,VWS V14.01,2013-01-09 16:57:00,
2013-01-09 10:58:00,35.2,30.0,30.44,South,170,11.0,11.0,81,0.00,,---,0.00,VWS V14.01,2013-01-09 16:58:00,
2013-01-09 11:02:00,35.2,29.7,30.44,South,173,11.0,14.0,80,0.00,,---,0.00,VWS V14.01,2013-01-09 17:02:00,
2013-01-09 11:03:00,35.2,29.7,30.44,South,173,11.0,14.0,80,0.00,,---,0.00,VWS V14.01,2013-01-09 17:03:00,
2013-01-09 11:04:00,35.2,29.7,30.44,South,174,11.0,14.0,80,0.00,,---,0.00,VWS V14.01,2013-01-09 17:04:00,
2013-01-09 11:07:00,35.3,29.8,30.44,South,174,3.0,14.0,80,0.00,,---,0.00,VWS V14.01,2013-01-09 17:07:00,
2013-01-09 11:08:00,35.3,29.8,30.44,South,174,1.0,14.0,80,0.00,,---,0.00,VWS V14.01,2013-01-09 17:08:00,
2013-01-09 11:09:00,35.5,30.0,30.44,South,174,3.0,14.0,80,0.00,,---,0.00,VWS V14.01,2013-01-09 17:09:00,
2013-01-09 11:12:00,35.8,30.2,30.44,South,175,10.0,11.0,80,0.00,,---,0.00,VWS V14.01,2013-01-09 17:12:00,
2013-01-09 11:13:00,35.9,30.0,30.44,South,175,8.0,11.0,79,0.00,,---,0.00,VWS V14.01,2013-01-09 17:13:00,
2013-01-09 11:14:00,35.9,30.3,30.44,South,175,9.0,11.0,80,0.00,,---,0.00,VWS V14.01,2013-01-09 17:14:00,
2013-01-09 11:18:00,36.3,30.4,30.44,South,175,0.0,11.0,79,0.00,,---,0.00,VWS V14.01,2013-01-09 17:18:00,
2013-01-09 11:19:00,36.3,30.4,30.44,South,175,0.0,11.0,79,0.00,,---,0.00,VWS V14.01,2013-01-09 17:19:00,
2013-01-09 11:23:00,36.8,30.9,30.44,South,175,0.0,0.0,79,0.00,,---,0.00,VWS V14.01,2013-01-09 17:23:00,
2013-01-09 11:24:00,36.8,30.6,30.44,South,175,0.0,0.0,78,0.00,,---,0.00,VWS V14.01,2013-01-09 17:24:00,
2013-01-09 11:28:00,37.2,31.0,30.44,South,175,0.0,0.0,78,0.00,,---,0.00,VWS V14.01,2013-01-09 17:28:00,
2013-01-09 11:29:00,37.2,30.7,30.44,South,175,0.0,0.0,77,0.00,,---,0.00,VWS V14.01,2013-01-09 17:29:00,
2013-01-09 11:33:00,37.6,30.7,30.42,South,175,0.0,0.0,76,0.00,,---,0.00,VWS V14.01,2013-01-09 17:33:00,
2013-01-09 11:34:00,37.6,30.7,30.42,South,175,0.0,0.0,76,0.00,,---,0.00,VWS V14.01,2013-01-09 17:34:00,
2013-01-09 11:35:00,37.8,30.9,30.42,South,175,0.0,0.0,76,0.00,,---,0.00,VWS V14.01,2013-01-09 17:35:00,
2013-01-09 11:38:00,38.0,31.1,30.42,South,175,0.0,0.0,76,0.00,,---,0.00,VWS V14.01,2013-01-09 17:38:00,
2013-01-09 11:39:00,38.0,31.1,30.42,South,175,0.0,0.0,76,0.00,,---,0.00,VWS V14.01,2013-01-09 17:39:00,
2013-01-09 11:40:00,38.0,30.8,30.42,South,175,0.0,0.0,75,0.00,,---,0.00,VWS V14.01,2013-01-09 17:40:00,
2013-01-09 11:43:00,38.5,31.3,30.42,South,175,0.0,0.0,75,0.00,,---,0.00,VWS V14.01,2013-01-09 17:43:00,
2013-01-09 11:44:00,38.5,31.3,30.42,South,175,0.0,0.0,75,0.00,,---,0.00,VWS V14.01,2013-01-09 17:44:00,
2013-01-09 11:45:00,38.5,31.3,30.40,South,175,0.0,0.0,75,0.00,,---,0.00,VWS V14.01,2013-01-09 17:45:00,
2013-01-09 11:49:00,38.8,31.2,30.40,South,175,3.0,4.0,74,0.00,,---,0.00,VWS V14.01,2013-01-09 17:49:00,
2013-01-09 11:50:00,38.9,31.3,30.40,South,175,6.0,6.0,74,0.00,,---,0.00,VWS V14.01,2013-01-09 17:50:00,
2013-01-09 11:54:00,39.2,31.6,30.40,South,175,0.0,3.0,74,0.00,,---,0.00,VWS V14.01,2013-01-09 17:54:00,
2013-01-09 11:55:00,39.3,31.7,30.40,South,175,0.0,3.0,74,0.00,,---,0.00,VWS V14.01,2013-01-09 17:55:00,
2013-01-09 11:59:00,39.9,32.0,30.40,South,175,1.0,4.0,73,0.00,,---,0.00,VWS V14.01,2013-01-09 17:59:00,
2013-01-09 12:00:00,39.9,32.0,30.40,South,175,1.0,4.0,73,0.00,,---,0.00,VWS V14.01,2013-01-09 18:00:00,
2013-01-09 12:04:00,40.2,31.9,30.40,South,175,1.0,4.0,72,0.00,,---,0.00,VWS V14.01,2013-01-09 18:04:00,
2013-01-09 12:05:00,40.2,31.9,30.40,South,175,1.0,4.0,72,0.00,,---,0.00,VWS V14.01,2013-01-09 18:05:00,
2013-01-09 12:09:00,40.6,32.0,30.40,South,175,0.0,4.0,71,0.00,,---,0.00,VWS V14.01,2013-01-09 18:09:00,
2013-01-09 12:10:00,40.6,32.0,30.40,South,175,0.0,4.0,71,0.00,,---,0.00,VWS V14.01,2013-01-09 18:10:00,
2013-01-09 12:14:00,41.3,32.3,30.40,South,175,0.0,0.0,70,0.00,,---,0.00,VWS V14.01,2013-01-09 18:14:00,
2013-01-09 12:15:00,41.3,32.3,30.38,South,175,0.0,0.0,70,0.00,,---,0.00,VWS V14.01,2013-01-09 18:15:00,
2013-01-09 12:16:00,41.5,32.5,30.38,South,175,0.0,0.0,70,0.00,,---,0.00,VWS V14.01,2013-01-09 18:16:00,
2013-01-09 12:20:00,42.1,32.3,30.38,South,175,0.0,0.0,68,0.00,,---,0.00,VWS V14.01,2013-01-09 18:20:00,
2013-01-09 12:21:00,42.2,32.0,30.38,South,175,0.0,0.0,67,0.00,,---,0.00,VWS V14.01,2013-01-09 18:21:00,
2013-01-09 12:25:00,42.8,32.2,30.38,South,175,0.0,0.0,66,0.00,,---,0.00,VWS V14.01,2013-01-09 18:25:00,
2013-01-09 12:26:00,42.9,32.0,30.38,South,175,0.0,0.0,65,0.00,,---,0.00,VWS V14.01,2013-01-09 18:26:00,
2013-01-09 12:27:00,43.1,32.2,30.38,South,175,0.0,0.0,65,0.00,,---,0.00,VWS V14.01,2013-01-09 18:27:00,
2013-01-09 12:30:00,43.3,32.0,30.37,South,175,0.0,0.0,64,0.00,,---,0.00,VWS V14.01,2013-01-09 18:30:00,
2013-01-09 12:31:00,43.5,32.2,30.37,South,175,0.0,0.0,64,0.00,,---,0.00,VWS V14.01,2013-01-09 18:31:00,
2013-01-09 12:32:00,43.6,32.2,30.37,South,175,0.0,0.0,64,0.00,,---,0.00,VWS V14.01,2013-01-09 18:32:00,
2013-01-09 12:35:00,43.9,32.1,30.37,South,175,0.0,0.0,63,0.00,,---,0.00,VWS V14.01,2013-01-09 18:35:00,
2013-01-09 12:36:00,44.1,31.9,30.37,South,175,0.0,0.0,62,0.00,,---,0.00,VWS V14.01,2013-01-09 18:36:00,
2013-01-09 12:38:00,44.2,32.4,30.37,South,175,0.0,0.0,63,0.00,,---,0.00,VWS V14.01,2013-01-09 18:38:00,
2013-01-09 12:40:00,44.5,32.3,30.37,South,175,0.0,0.0,62,0.00,,---,0.00,VWS V14.01,2013-01-09 18:40:00,
2013-01-09 12:41:00,44.6,32.4,30.37,South,175,0.0,0.0,62,0.00,,---,0.00,VWS V14.01,2013-01-09 18:41:00,
2013-01-09 12:44:00,45.1,32.5,30.37,South,175,0.0,0.0,61,0.00,,---,0.00,VWS V14.01,2013-01-09 18:44:00,
2013-01-09 12:48:00,45.5,32.4,30.36,South,175,0.0,0.0,60,0.00,,---,0.00,VWS V14.01,2013-01-09 18:48:00,
2013-01-09 12:53:00,46.1,32.6,30.36,South,175,0.0,0.0,59,0.00,,---,0.00,VWS V14.01,2013-01-09 18:53:00,
2013-01-09 12:54:00,46.1,32.6,30.36,South,175,0.0,0.0,59,0.00,,---,0.00,VWS V14.01,2013-01-09 18:54:00,
2013-01-09 12:58:00,46.2,32.2,30.36,South,175,0.0,0.0,58,0.00,,---,0.00,VWS V14.01,2013-01-09 18:58:00,
2013-01-09 12:59:00,46.2,32.2,30.36,South,175,0.0,0.0,58,0.00,,---,0.00,VWS V14.01,2013-01-09 18:59:00,
2013-01-09 13:03:00,46.5,32.5,30.36,South,175,0.0,0.0,58,0.00,,---,0.00,VWS V14.01,2013-01-09 19:03:00,
2013-01-09 13:04:00,46.5,32.5,30.36,South,175,0.0,0.0,58,0.00,,---,0.00,VWS V14.01,2013-01-09 19:04:00,
2013-01-09 13:09:00,47.0,32.6,30.36,South,175,0.0,0.0,57,0.00,,---,0.00,VWS V14.01,2013-01-09 19:09:00,
2013-01-09 13:10:00,47.0,32.6,30.36,South,175,0.0,0.0,57,0.00,,---,0.00,VWS V14.01,2013-01-09 19:10:00,
2013-01-09 13:14:00,47.3,32.8,30.36,South,175,2.0,3.0,57,0.00,,---,0.00,VWS V14.01,2013-01-09 19:14:00,
2013-01-09 13:15:00,47.3,32.8,30.35,South,175,2.0,3.0,57,0.00,,---,0.00,VWS V14.01,2013-01-09 19:15:00,
2013-01-09 13:19:00,47.4,33.0,30.35,South,175,0.0,3.0,57,0.00,,---,0.00,VWS V14.01,2013-01-09 19:19:00,
2013-01-09 13:20:00,47.6,33.1,30.35,South,175,0.0,3.0,57,0.00,,---,0.00,VWS V14.01,2013-01-09 19:20:00,
2013-01-09 13:24:00,47.7,32.8,30.35,South,175,0.0,4.0,56,0.00,,---,0.00,VWS V14.01,2013-01-09 19:24:00,
2013-01-09 13:25:00,47.7,32.8,30.35,South,175,0.0,4.0,56,0.00,,---,0.00,VWS V14.01,2013-01-09 19:25:00,
2013-01-09 13:26:00,47.7,33.2,30.35,South,175,0.0,4.0,57,0.00,,---,0.00,VWS V14.01,2013-01-09 19:26:00,
2013-01-09 13:29:00,48.0,33.1,30.35,South,175,2.0,4.0,56,0.00,,---,0.00,VWS V14.01,2013-01-09 19:29:00,
2013-01-09 13:31:00,48.0,33.1,30.34,South,175,0.0,2.0,56,0.00,,---,0.00,VWS V14.01,2013-01-09 19:31:00,
2013-01-09 13:34:00,48.0,33.1,30.34,South,175,0.0,2.0,56,0.00,,---,0.00,VWS V14.01,2013-01-09 19:34:00,
2013-01-09 13:35:00,48.0,33.1,30.34,South,175,0.0,2.0,56,0.00,,---,0.00,VWS V14.01,2013-01-09 19:35:00,
2013-01-09 13:36:00,48.0,33.1,30.34,South,175,0.0,2.0,56,0.00,,---,0.00,VWS V14.01,2013-01-09 19:36:00,
2013-01-09 13:37:00,48.0,33.1,30.34,South,175,0.0,2.0,56,0.00,,---,0.00,VWS V14.01,2013-01-09 19:37:00,
2013-01-09 13:39:00,48.0,33.5,30.34,South,175,0.0,2.0,57,0.00,,---,0.00,VWS V14.01,2013-01-09 19:39:00,
2013-01-09 13:40:00,48.0,33.1,30.34,South,175,0.0,2.0,56,0.00,,---,0.00,VWS V14.01,2013-01-09 19:40:00,
2013-01-09 13:41:00,48.0,33.1,30.34,South,175,3.0,3.0,56,0.00,,---,0.00,VWS V14.01,2013-01-09 19:41:00,
2013-01-09 13:42:00,48.0,33.1,30.34,South,175,3.0,3.0,56,0.00,,---,0.00,VWS V14.01,2013-01-09 19:42:00,
2013-01-09 13:45:00,48.2,33.3,30.34,South,175,0.0,3.0,56,0.00,,---,0.00,VWS V14.01,2013-01-09 19:45:00,
2013-01-09 13:46:00,48.3,33.8,30.34,South,175,0.0,3.0,57,0.00,,---,0.00,VWS V14.01,2013-01-09 19:46:00,
2013-01-09 13:47:00,48.3,33.8,30.34,South,175,0.0,3.0,57,0.00,,---,0.00,VWS V14.01,2013-01-09 19:47:00,
2013-01-09 13:50:00,48.3,33.8,30.34,South,175,3.0,4.0,57,0.00,,---,0.00,VWS V14.01,2013-01-09 19:50:00,
2013-01-09 13:52:00,48.3,33.3,30.34,South,175,2.0,4.0,56,0.00,,---,0.00,VWS V14.01,2013-01-09 19:52:00,
2013-01-09 13:55:00,48.3,33.8,30.34,South,175,0.0,4.0,57,0.00,,---,0.00,VWS V14.01,2013-01-09 19:55:00,
2013-01-09 13:57:00,48.3,33.8,30.34,South,175,0.0,4.0,57,0.00,,---,0.00,VWS V14.01,2013-01-09 19:57:00,
2013-01-09 14:00:00,48.3,33.8,30.35,South,175,0.0,4.0,57,0.00,,---,0.00,VWS V14.01,2013-01-09 20:00:00,
2013-01-09 14:01:00,48.3,33.8,30.35,South,175,0.0,0.0,57,0.00,,---,0.00,VWS V14.01,2013-01-09 20:01:00,
2013-01-09 14:02:00,48.3,33.8,30.35,South,175,0.0,0.0,57,0.00,,---,0.00,VWS V14.01,2013-01-09 20:02:00,
2013-01-09 14:05:00,48.5,34.0,30.35,South,175,0.0,0.0,57,0.00,,---,0.00,VWS V14.01,2013-01-09 20:05:00,
2013-01-09 14:06:00,48.5,34.0,30.35,South,175,0.0,0.0,57,0.00,,---,0.00,VWS V14.01,2013-01-09 20:06:00,
2013-01-09 14:07:00,48.5,34.0,30.35,South,175,0.0,0.0,57,0.00,,---,0.00,VWS V14.01,2013-01-09 20:07:00,
2013-01-09 14:10:00,48.8,34.3,30.35,South,175,3.0,4.0,57,0.00,,---,0.00,VWS V14.01,2013-01-09 20:10:00,
2013-01-09 14:11:00,48.8,34.3,30.35,South,175,4.0,4.0,57,0.00,,---,0.00,VWS V14.01,2013-01-09 20:11:00,
2013-01-09 14:12:00,48.8,34.3,30.35,South,175,3.0,4.0,57,0.00,,---,0.00,VWS V14.01,2013-01-09 20:12:00,
2013-01-09 14:13:00,48.9,34.3,30.35,South,175,3.0,4.0,57,0.00,,---,0.00,VWS V14.01,2013-01-09 20:13:00,
2013-01-09 14:15:00,48.9,33.9,30.35,South,175,0.0,4.0,56,0.00,,---,0.00,VWS V14.01,2013-01-09 20:15:00,
2013-01-09 14:16:00,48.9,33.9,30.35,South,175,0.0,4.0,56,0.00,,---,0.00,VWS V14.01,2013-01-09 20:16:00,
2013-01-09 14:17:00,48.9,33.9,30.35,South,175,1.0,4.0,56,0.00,,---,0.00,VWS V14.01,2013-01-09 20:17:00,
2013-01-09 14:18:00,48.9,33.9,30.35,South,175,3.0,4.0,56,0.00,,---,0.00,VWS V14.01,2013-01-09 20:18:00,
2013-01-09 14:21:00,49.1,34.1,30.35,South,175,0.0,0.0,56,0.00,,---,0.00,VWS V14.01,2013-01-09 20:21:00,
2013-01-09 14:22:00,49.1,34.1,30.35,South,175,2.0,4.0,56,0.00,,---,0.00,VWS V14.01,2013-01-09 20:22:00,
2013-01-09 14:23:00,49.1,33.2,30.35,South,175,0.0,4.0,54,0.00,,---,0.00,VWS V14.01,2013-01-09 20:23:00,
2013-01-09 14:26:00,49.2,33.3,30.35,South,175,0.0,4.0,54,0.00,,---,0.00,VWS V14.01,2013-01-09 20:26:00,
2013-01-09 14:27:00,49.4,33.5,30.35,South,175,0.0,4.0,54,0.00,,---,0.00,VWS V14.01,2013-01-09 20:27:00,
2013-01-09 14:28:00,49.4,33.5,30.35,South,175,0.0,4.0,54,0.00,,---,0.00,VWS V14.01,2013-01-09 20:28:00,
2013-01-09 14:31:00,49.5,32.6,30.36,South,175,0.0,0.0,52,0.00,,---,0.00,VWS V14.01,2013-01-09 20:31:00,
2013-01-09 14:32:00,49.6,32.7,30.36,South,175,0.0,0.0,52,0.00,,---,0.00,VWS V14.01,2013-01-09 20:32:00,
2013-01-09 14:33:00,49.6,32.7,30.36,South,175,0.0,0.0,52,0.00,,---,0.00,VWS V14.01,2013-01-09 20:33:00,
2013-01-09 14:36:00,49.8,33.4,30.36,South,175,0.0,0.0,53,0.00,,---,0.00,VWS V14.01,2013-01-09 20:36:00,
2013-01-09 14:37:00,49.8,33.4,30.36,South,175,0.0,0.0,53,0.00,,---,0.00,VWS V14.01,2013-01-09 20:37:00,
2013-01-09 14:38:00,49.9,33.5,30.36,South,175,0.0,0.0,53,0.00,,---,0.00,VWS V14.01,2013-01-09 20:38:00,
2013-01-09 14:41:00,50.1,33.7,30.36,South,175,0.0,0.0,53,0.00,,---,0.00,VWS V14.01,2013-01-09 20:41:00,
2013-01-09 14:42:00,50.1,33.7,30.36,South,175,0.0,0.0,53,0.00,,---,0.00,VWS V14.01,2013-01-09 20:42:00,
2013-01-09 14:43:00,50.2,33.3,30.36,South,175,0.0,0.0,52,0.00,,---,0.00,VWS V14.01,2013-01-09 20:43:00,
2013-01-09 14:46:00,50.2,33.3,30.35,South,175,1.0,3.0,52,0.00,,---,0.00,VWS V14.01,2013-01-09 20:46:00,
2013-01-09 14:47:00,50.4,33.5,30.35,South,175,0.0,3.0,52,0.00,,---,0.00,VWS V14.01,2013-01-09 20:47:00,
2013-01-09 14:48:00,50.4,33.5,30.35,South,175,0.0,3.0,52,0.00,,---,0.00,VWS V14.01,2013-01-09 20:48:00,
2013-01-09 14:51:00,50.5,33.5,30.35,South,175,0.0,0.0,52,0.00,,---,0.00,VWS V14.01,2013-01-09 20:51:00,
2013-01-09 14:52:00,50.7,33.7,30.35,South,175,0.0,0.0,52,0.00,,---,0.00,VWS V14.01,2013-01-09 20:52:00,
2013-01-09 14:53:00,50.7,33.7,30.35,South,175,0.0,0.0,52,0.00,,---,0.00,VWS V14.01,2013-01-09 20:53:00,
2013-01-09 14:56:00,51.0,34.0,30.35,South,175,0.0,0.0,52,0.00,,---,0.00,VWS V14.01,2013-01-09 20:56:00,
2013-01-09 14:57:00,51.0,34.0,30.35,South,175,0.0,0.0,52,0.00,,---,0.00,VWS V14.01,2013-01-09 20:57:00,
2013-01-09 14:58:00,51.0,34.0,30.35,South,175,0.0,0.0,52,0.00,,---,0.00,VWS V14.01,2013-01-09 20:58:00,
2013-01-09 17:27:00,51.0,34.0,30.35,South,175,0.0,0.0,52,0.00,,---,0.00,VWS V14.01,2013-01-09 23:27:00,
2013-01-09 17:28:00,49.9,33.0,30.34,South,175,0.0,0.0,52,0.00,,---,0.00,VWS V14.01,2013-01-09 23:28:00,
2013-01-09 17:32:00,49.8,32.9,30.33,South,175,0.0,0.0,52,0.00,,---,0.00,VWS V14.01,2013-01-09 23:32:00,
2013-01-09 17:33:00,49.8,32.9,30.33,South,175,0.0,0.0,52,0.00,,---,0.00,VWS V14.01,2013-01-09 23:33:00,
2013-01-09 17:37:00,49.5,33.1,30.33,South,175,0.0,0.0,53,0.00,,---,0.00,VWS V14.01,2013-01-09 23:37:00,
2013-01-09 17:38:00,49.4,33.0,30.33,South,175,0.0,0.0,53,0.00,,---,0.00,VWS V14.01,2013-01-09 23:38:00,
2013-01-09 17:43:00,48.8,33.4,30.33,South,175,0.0,0.0,55,0.00,,---,0.00,VWS V14.01,2013-01-09 23:43:00,
2013-01-09 17:48:00,48.0,33.5,30.35,South,175,0.0,0.0,57,0.00,,---,0.00,VWS V14.01,2013-01-09 23:48:00,
2013-01-09 17:49:00,47.9,33.4,30.35,South,175,0.0,0.0,57,0.00,,---,0.00,VWS V14.01,2013-01-09 23:49:00,
2013-01-09 17:53:00,47.4,33.4,30.35,South,175,0.0,0.0,58,0.00,,---,0.00,VWS V14.01,2013-01-09 23:53:00,
2013-01-09 17:54:00,47.3,33.3,30.35,South,175,0.0,0.0,58,0.00,,---,0.00,VWS V14.01,2013-01-09 23:54:00,
2013-01-09 17:58:00,47.0,33.4,30.35,South,175,0.0,0.0,59,0.00,,---,0.00,VWS V14.01,2013-01-09 23:58:00,
2013-01-09 17:59:00,46.8,33.2,30.35,South,175,0.0,0.0,59,0.00,,---,0.00,VWS V14.01,2013-01-09 23:59:00,
2013-01-09 18:03:00,46.5,33.4,30.36,South,175,0.0,0.0,60,0.00,,---,0.00,VWS V14.01,2013-01-10 00:03:00,
2013-01-09 18:04:00,46.5,33.4,30.36,South,175,0.0,0.0,60,0.00,,---,0.00,VWS V14.01,2013-01-10 00:04:00,
2013-01-09 18:05:00,46.4,33.3,30.36,South,175,0.0,0.0,60,0.00,,---,0.00,VWS V14.01,2013-01-10 00:05:00,
2013-01-09 18:09:00,46.1,33.8,30.36,South,175,0.0,0.0,62,0.00,,---,0.00,VWS V14.01,2013-01-10 00:09:00,
2013-01-09 18:10:00,46.0,33.7,30.36,South,175,0.0,0.0,62,0.00,,---,0.00,VWS V14.01,2013-01-10 00:10:00,
2013-01-09 18:14:00,45.5,33.2,30.36,South,175,0.0,0.0,62,0.00,,---,0.00,VWS V14.01,2013-01-10 00:14:00,
2013-01-09 18:15:00,45.5,33.7,30.37,South,175,0.0,0.0,63,0.00,,---,0.00,VWS V14.01,2013-01-10 00:15:00,
2013-01-09 18:19:00,45.1,33.3,30.37,South,175,0.0,0.0,63,0.00,,---,0.00,VWS V14.01,2013-01-10 00:19:00,
2013-01-09 18:20:00,44.8,33.4,30.37,South,175,0.0,0.0,64,0.00,,---,0.00,VWS V14.01,2013-01-10 00:20:00,
2013-01-09 18:24:00,44.5,33.1,30.37,South,175,0.0,0.0,64,0.00,,---,0.00,VWS V14.01,2013-01-10 00:24:00,
2013-01-09 18:26:00,44.3,32.9,30.37,South,175,0.0,0.0,64,0.00,,---,0.00,VWS V14.01,2013-01-10 00:26:00,
2013-01-09 18:29:00,44.3,32.9,30.37,South,175,0.0,0.0,64,0.00,,---,0.00,VWS V14.01,2013-01-10 00:29:00,
2013-01-09 18:30:00,44.3,32.9,30.37,South,175,0.0,0.0,64,0.00,,---,0.00,VWS V14.01,2013-01-10 00:30:00,
2013-01-09 18:31:00,44.5,33.1,30.37,South,175,0.0,0.0,64,0.00,,---,0.00,VWS V14.01,2013-01-10 00:31:00,
2013-01-09 18:34:00,44.5,33.5,30.37,South,175,0.0,0.0,65,0.00,,---,0.00,VWS V14.01,2013-01-10 00:34:00,
2013-01-09 18:35:00,44.5,33.5,30.37,South,175,0.0,0.0,65,0.00,,---,0.00,VWS V14.01,2013-01-10 00:35:00,
2013-01-09 18:36:00,44.5,33.5,30.37,South,175,0.0,0.0,65,0.00,,---,0.00,VWS V14.01,2013-01-10 00:36:00,
2013-01-09 18:40:00,44.5,33.5,30.37,South,175,0.0,0.0,65,0.00,,---,0.00,VWS V14.01,2013-01-10 00:40:00,
2013-01-09 18:41:00,44.5,33.5,30.37,South,175,0.0,0.0,65,0.00,,---,0.00,VWS V14.01,2013-01-10 00:41:00,
2013-01-09 18:45:00,44.6,33.6,30.37,South,175,0.0,0.0,65,0.00,,---,0.00,VWS V14.01,2013-01-10 00:45:00,
2013-01-09 18:46:00,44.6,33.6,30.37,South,175,0.0,0.0,65,0.00,,---,0.00,VWS V14.01,2013-01-10 00:46:00,
2013-01-09 18:50:00,44.6,33.6,30.37,South,175,0.0,0.0,65,0.00,,---,0.00,VWS V14.01,2013-01-10 00:50:00,
2013-01-09 18:51:00,44.8,33.4,30.37,South,175,0.0,0.0,64,0.00,,---,0.00,VWS V14.01,2013-01-10 00:51:00,
2013-01-09 18:55:00,45.1,33.3,30.37,South,175,0.0,0.0,63,0.00,,---,0.00,VWS V14.01,2013-01-10 00:55:00,
2013-01-09 18:56:00,45.2,33.0,30.37,South,175,0.0,0.0,62,0.00,,---,0.00,VWS V14.01,2013-01-10 00:56:00,
2013-01-09 19:00:00,45.4,33.2,30.37,South,175,0.0,0.0,62,0.00,,---,0.00,VWS V14.01,2013-01-10 01:00:00,
2013-01-09 19:01:00,45.4,33.2,30.37,South,175,0.0,0.0,62,0.00,,---,0.00,VWS V14.01,2013-01-10 01:01:00,
2013-01-09 19:02:00,45.4,33.2,30.37,South,175,0.0,0.0,62,0.00,,---,0.00,VWS V14.01,2013-01-10 01:02:00,
2013-01-09 19:05:00,45.5,32.8,30.37,South,175,0.0,0.0,61,0.00,,---,0.00,VWS V14.01,2013-01-10 01:05:00,
2013-01-09 19:06:00,45.5,32.8,30.37,South,175,0.0,0.0,61,0.00,,---,0.00,VWS V14.01,2013-01-10 01:06:00,
2013-01-09 19:07:00,45.5,32.8,30.37,South,175,0.0,0.0,61,0.00,,---,0.00,VWS V14.01,2013-01-10 01:07:00,
2013-01-09 19:10:00,45.5,32.8,30.37,South,175,3.0,3.0,61,0.00,,---,0.00,VWS V14.01,2013-01-10 01:10:00,
2013-01-09 19:11:00,45.5,32.8,30.37,South,175,3.0,3.0,61,0.00,,---,0.00,VWS V14.01,2013-01-10 01:11:00,
2013-01-09 19:12:00,45.4,32.8,30.37,South,175,4.0,4.0,61,0.00,,---,0.00,VWS V14.01,2013-01-10 01:12:00,
2013-01-09 19:15:00,45.1,32.5,30.35,South,175,3.0,4.0,61,0.00,,---,0.00,VWS V14.01,2013-01-10 01:15:00,
2013-01-09 19:16:00,45.1,32.5,30.35,South,175,3.0,4.0,61,0.00,,---,0.00,VWS V14.01,2013-01-10 01:16:00,
2013-01-09 19:17:00,44.9,32.3,30.35,South,175,3.0,4.0,61,0.00,,---,0.00,VWS V14.01,2013-01-10 01:17:00,
2013-01-09 19:21:00,44.6,32.4,30.35,South,175,3.0,4.0,62,0.00,,---,0.00,VWS V14.01,2013-01-10 01:21:00,
2013-01-09 19:22:00,44.6,32.4,30.35,South,175,4.0,4.0,62,0.00,,---,0.00,VWS V14.01,2013-01-10 01:22:00,
2013-01-09 19:23:00,44.5,32.3,30.35,South,175,3.0,4.0,62,0.00,,---,0.00,VWS V14.01,2013-01-10 01:23:00,
2013-01-09 19:26:00,44.2,32.4,30.35,South,175,3.0,4.0,63,0.00,,---,0.00,VWS V14.01,2013-01-10 01:26:00,
2013-01-09 19:27:00,44.2,32.4,30.35,South,175,3.0,4.0,63,0.00,,---,0.00,VWS V14.01,2013-01-10 01:27:00,
2013-01-09 19:28:00,44.2,32.4,30.35,South,175,4.0,4.0,63,0.00,,---,0.00,VWS V14.01,2013-01-10 01:28:00,
2013-01-09 19:31:00,44.1,32.3,30.36,South,175,3.0,3.0,63,0.00,,---,0.00,VWS V14.01,2013-01-10 01:31:00,
2013-01-09 19:32:00,44.1,32.3,30.36,South,175,3.0,4.0,63,0.00,,---,0.00,VWS V14.01,2013-01-10 01:32:00,
2013-01-09 19:33:00,43.9,32.1,30.36,South,175,3.0,4.0,63,0.00,,---,0.00,VWS V14.01,2013-01-10 01:33:00,
2013-01-09 19:36:00,43.6,32.2,30.36,South,175,3.0,4.0,64,0.00,,---,0.00,VWS V14.01,2013-01-10 01:36:00,
2013-01-09 19:37:00,43.6,32.2,30.36,South,175,2.0,4.0,64,0.00,,---,0.00,VWS V14.01,2013-01-10 01:37:00,
2013-01-09 19:39:00,43.5,32.2,30.36,South,175,3.0,4.0,64,0.00,,---,0.00,VWS V14.01,2013-01-10 01:39:00,
2013-01-09 19:42:00,43.2,31.9,30.36,South,175,4.0,4.0,64,0.00,,---,0.00,VWS V14.01,2013-01-10 01:42:00,
2013-01-09 19:44:00,43.1,31.8,30.36,South,175,3.0,4.0,64,0.00,,---,0.00,VWS V14.01,2013-01-10 01:44:00,
2013-01-09 19:47:00,42.9,32.0,30.35,South,175,2.0,4.0,65,0.00,,---,0.00,VWS V14.01,2013-01-10 01:47:00,
2013-01-09 19:49:00,42.9,32.0,30.35,South,175,1.0,4.0,65,0.00,,---,0.00,VWS V14.01,2013-01-10 01:49:00,
2013-01-09 19:52:00,42.9,32.0,30.35,South,175,2.0,2.0,65,0.00,,---,0.00,VWS V14.01,2013-01-10 01:52:00,
2013-01-09 19:53:00,42.9,32.0,30.35,South,175,2.0,2.0,65,0.00,,---,0.00,VWS V14.01,2013-01-10 01:53:00,
2013-01-09 19:54:00,42.9,32.0,30.35,South,175,2.0,3.0,65,0.00,,---,0.00,VWS V14.01,2013-01-10 01:54:00,
2013-01-09 19:57:00,42.8,31.9,30.35,South,175,3.0,4.0,65,0.00,,---,0.00,VWS V14.01,2013-01-10 01:57:00,
2013-01-09 19:58:00,42.8,31.9,30.35,South,175,3.0,4.0,65,0.00,,---,0.00,VWS V14.01,2013-01-10 01:58:00,
2013-01-09 20:00:00,42.8,31.9,30.35,South,175,3.0,4.0,65,0.00,,---,0.00,VWS V14.01,2013-01-10 02:00:00,
2013-01-09 20:02:00,42.6,31.7,30.35,South,175,2.0,3.0,65,0.00,,---,0.00,VWS V14.01,2013-01-10 02:02:00,
2013-01-09 20:03:00,42.5,31.6,30.35,South,175,2.0,3.0,65,0.00,,---,0.00,VWS V14.01,2013-01-10 02:03:00,
2013-01-09 20:05:00,42.3,31.4,30.35,South,175,1.0,3.0,65,0.00,,---,0.00,VWS V14.01,2013-01-10 02:05:00,
2013-01-09 20:07:00,42.3,31.4,30.35,South,175,2.0,3.0,65,0.00,,---,0.00,VWS V14.01,2013-01-10 02:07:00,
2013-01-09 20:08:00,42.3,31.8,30.35,South,175,3.0,3.0,66,0.00,,---,0.00,VWS V14.01,2013-01-10 02:08:00,
2013-01-09 20:10:00,42.3,31.8,30.35,South,175,1.0,3.0,66,0.00,,---,0.00,VWS V14.01,2013-01-10 02:10:00,